Time;durP1;ratioP1;P1;durP2;ratioP2;P2;SDS_P1;SDS_P2;PMS_P1;PMS_P2;Temp;Humidity;BMP_temperature;BMP_pressure;BME280_temperature;BME280_humidity;BME280_pressure;Samples;Min_cycle;Max_cycle;Signal;HPM_P1;HPM_P2
2021/12/27 00:00:10;;;;;;;29.42;16.23;;;;;;;8.47;76.47;98417.72;344803;28;1307;-69
2021/12/27 00:00:23;;;;;;;23.25;14.55;;;;;;;8.49;76.65;98410.72;346317;28;1191;-70
2021/12/27 00:00:36;;;;;;;23.05;14.63;;;;;;;8.49;76.65;98408.13;346217;28;1246;-68
2021/12/27 00:00:48;;;;;;;22.48;14.75;;;;;;;8.50;76.73;98415.00;345098;28;1099;-69
2021/12/27 00:01:04;;;;;;;23.75;15.15;;;;;;;8.49;76.89;98402.94;345473;28;1199;-70
2021/12/27 00:01:18;;;;;;;24.73;15.02;;;;;;;8.51;76.71;98411.50;344979;28;1204;-68
2021/12/27 00:01:34;;;;;;;23.42;14.77;;;;;;;8.51;76.60;98411.50;345564;28;1068;-69
2021/12/27 00:01:46;;;;;;;22.95;14.73;;;;;;;8.50;76.83;98410.66;346072;28;1066;-70
2021/12/27 00:01:58;;;;;;;24.50;15.48;;;;;;;8.50;76.40;98415.00;347014;28;1428;-69
2021/12/27 00:02:11;;;;;;;24.63;15.80;;;;;;;8.48;76.48;98406.47;344179;28;1803;-69
2021/12/27 00:02:24;;;;;;;25.17;16.13;;;;;;;8.44;76.80;98404.91;343050;28;1932;-68
2021/12/27 00:02:37;;;;;;;26.33;16.65;;;;;;;8.37;76.59;98406.88;343530;28;1159;-68
2021/12/27 00:02:53;;;;;;;27.50;17.20;;;;;;;8.32;77.31;98407.09;343970;28;1834;-68
2021/12/27 00:03:06;;;;;;;29.00;17.80;;;;;;;8.31;76.80;98405.44;343598;28;1259;-68
2021/12/27 00:03:18;;;;;;;29.15;18.00;;;;;;;8.35;77.04;98413.88;343852;28;2153;-68
2021/12/27 00:03:30;;;;;;;31.15;19.02;;;;;;;8.34;77.17;98410.47;345476;28;2034;-69
2021/12/27 00:03:43;;;;;;;33.45;20.02;;;;;;;8.34;76.90;98410.47;345067;28;2113;-69
2021/12/27 00:03:56;;;;;;;34.33;20.20;;;;;;;8.33;77.23;98411.38;344786;28;1291;-68
2021/12/27 00:04:08;;;;;;;34.40;19.58;;;;;;;8.34;76.98;98407.03;344649;28;1350;-70
2021/12/27 00:04:33;;;;;;;25.08;16.38;;;;;;;8.31;76.96;98415.78;348419;28;20940;-66
2021/12/27 00:04:45;;;;;;;32.47;19.15;;;;;;;8.33;76.97;98413.97;348711;28;1172;-66
2021/12/27 00:04:57;;;;;;;32.78;19.23;;;;;;;8.29;76.95;98416.72;349081;28;1659;-66
2021/12/27 00:05:10;;;;;;;32.47;18.92;;;;;;;8.30;77.06;98414.09;348334;28;1717;-65
2021/12/27 00:05:22;;;;;;;29.75;18.48;;;;;;;8.29;77.34;98412.41;347355;28;2380;-67
2021/12/27 00:05:34;;;;;;;30.17;17.85;;;;;;;8.30;77.01;98408.91;349019;28;1093;-68
2021/12/27 00:05:46;;;;;;;31.20;17.70;;;;;;;8.29;76.84;98406.38;348975;28;1215;-68
2021/12/27 00:05:58;;;;;;;31.90;18.05;;;;;;;8.31;77.28;98408.03;348732;28;1576;-68
2021/12/27 00:06:10;;;;;;;29.77;17.15;;;;;;;8.34;77.60;98410.47;349139;28;1295;-67
2021/12/27 00:06:22;;;;;;;30.00;16.70;;;;;;;8.33;77.39;98403.63;347877;28;2094;-67
2021/12/27 00:06:34;;;;;;;30.10;16.70;;;;;;;8.34;77.37;98407.88;347393;28;1069;-67
2021/12/27 00:06:46;;;;;;;32.83;16.88;;;;;;;8.35;77.14;98411.28;345860;28;1087;-67
2021/12/27 00:06:58;;;;;;;33.45;16.88;;;;;;;8.35;77.20;98409.56;346390;28;1699;-66
2021/12/27 00:07:10;;;;;;;31.33;16.95;;;;;;;8.36;77.02;98408.63;346693;28;1890;-68
2021/12/27 00:07:22;;;;;;;32.35;17.20;;;;;;;8.36;77.08;98403.47;346467;28;2061;-67
2021/12/27 00:07:34;;;;;;;31.15;16.80;;;;;;;8.37;77.23;98410.34;346113;28;1308;-68
2021/12/27 00:07:51;;;;;;;28.33;16.08;;;;;;;8.37;77.12;98399.97;345814;28;2175;-68
2021/12/27 00:08:03;;;;;;;29.88;16.65;;;;;;;8.34;76.90;98400.09;347334;28;1685;-67
2021/12/27 00:08:15;;;;;;;32.05;17.35;;;;;;;8.37;77.11;98401.69;347291;28;1277;-68
2021/12/27 00:08:33;;;;;;;29.55;16.88;;;;;;;8.38;77.10;98406.81;345678;28;2182;-68
2021/12/27 00:08:45;;;;;;;24.83;15.80;;;;;;;8.39;77.23;98408.53;348063;28;2235;-67
2021/12/27 00:08:57;;;;;;;26.20;16.10;;;;;;;8.38;77.06;98404.22;347490;28;1918;-68
2021/12/27 00:09:09;;;;;;;25.45;15.73;;;;;;;8.42;77.33;98396.38;348690;28;1014;-68
2021/12/27 00:09:21;;;;;;;25.55;15.80;;;;;;;8.43;77.25;98398.03;347228;28;2109;-67
2021/12/27 00:09:35;;;;;;;26.05;15.73;;;;;;;8.43;76.98;98398.03;346264;28;1927;-68
2021/12/27 00:09:49;;;;;;;27.13;15.80;;;;;;;8.45;77.12;98401.41;345062;28;1055;-68
2021/12/27 00:10:01;;;;;;;26.15;15.75;;;;;;;8.47;77.23;98407.34;346836;28;1311;-67
2021/12/27 00:10:13;;;;;;;26.15;16.23;;;;;;;8.46;76.95;98398.75;347638;28;1313;-68
2021/12/27 00:10:27;;;;;;;32.13;17.75;;;;;;;8.47;76.77;98397.00;346323;28;2079;-67
2021/12/27 00:10:39;;;;;;;33.35;18.08;;;;;;;8.48;77.06;98404.72;346398;28;2187;-67
2021/12/27 00:10:51;;;;;;;32.90;17.88;;;;;;;8.47;76.50;98395.28;347253;28;1430;-68
2021/12/27 00:11:03;;;;;;;30.38;16.70;;;;;;;8.48;76.93;98401.28;346930;28;1972;-68
2021/12/27 00:11:17;;;;;;;30.13;16.85;;;;;;;8.48;76.49;98401.28;347630;28;1034;-67
2021/12/27 00:11:29;;;;;;;27.73;16.30;;;;;;;8.47;76.98;98399.59;347792;28;1207;-67
2021/12/27 00:11:41;;;;;;;26.52;16.10;;;;;;;8.49;76.61;98400.38;347463;28;1077;-68
2021/12/27 00:11:53;;;;;;;26.13;15.98;;;;;;;8.50;76.51;98399.47;347462;28;2025;-68
2021/12/27 00:12:06;;;;;;;27.15;15.98;;;;;;;8.49;76.83;98397.78;346125;28;1437;-67
2021/12/27 00:12:19;;;;;;;33.58;16.73;;;;;;;8.48;76.35;98396.09;346246;28;1217;-68
2021/12/27 00:12:31;;;;;;;31.92;16.83;;;;;;;8.50;76.41;98402.91;346989;28;2122;-68
2021/12/27 00:12:43;;;;;;;32.45;17.05;;;;;;;8.49;76.70;98400.38;346204;28;1273;-68
2021/12/27 00:12:57;;;;;;;34.58;17.80;;;;;;;8.50;76.35;98399.47;346049;28;1244;-67
2021/12/27 00:13:09;;;;;;;34.00;18.05;;;;;;;8.49;76.33;98402.94;347370;28;1315;-67
2021/12/27 00:13:21;;;;;;;27.88;16.83;;;;;;;8.50;76.60;98394.28;346398;28;2125;-67
2021/12/27 00:13:33;;;;;;;29.60;17.23;;;;;;;8.49;76.47;98401.22;345932;28;1203;-67
2021/12/27 00:13:46;;;;;;;29.55;17.38;;;;;;;8.48;76.46;98401.28;345936;28;1143;-68
2021/12/27 00:13:58;;;;;;;31.45;17.90;;;;;;;8.43;76.61;98398.03;345914;28;1415;-68
2021/12/27 00:14:10;;;;;;;37.45;19.00;;;;;;;8.42;76.43;98399.81;345465;28;1339;-68
2021/12/27 00:14:23;;;;;;;40.60;18.30;;;;;;;8.42;76.74;98398.97;345998;28;1331;-67
2021/12/27 00:14:35;;;;;;;32.15;16.55;;;;;;;8.43;76.47;98392.88;347131;28;2024;-67
2021/12/27 00:14:47;;;;;;;32.65;16.90;;;;;;;8.42;76.56;98398.97;346706;28;2158;-68
2021/12/27 00:14:59;;;;;;;29.88;17.00;;;;;;;8.42;76.65;98397.22;347318;28;1574;-68
2021/12/27 00:15:13;;;;;;;29.55;17.15;;;;;;;8.43;76.63;98398.03;347304;28;1026;-67
2021/12/27 00:15:26;;;;;;;27.08;16.77;;;;;;;8.44;76.66;98395.41;346805;28;1807;-68
2021/12/27 00:15:39;;;;;;;26.05;16.10;;;;;;;8.48;76.73;98401.28;346406;28;1062;-67
2021/12/27 00:15:51;;;;;;;25.55;16.00;;;;;;;8.49;76.26;98395.19;346253;28;1046;-68
2021/12/27 00:16:04;;;;;;;26.00;16.15;;;;;;;8.49;76.65;98395.19;346446;28;1681;-67
2021/12/27 00:16:16;;;;;;;25.23;15.75;;;;;;;8.49;76.79;98388.28;346310;28;1190;-67
2021/12/27 00:16:28;;;;;;;23.38;14.70;;;;;;;8.52;76.72;98392.47;345964;28;1272;-67
2021/12/27 00:16:40;;;;;;;21.83;14.25;;;;;;;8.52;76.81;98392.47;345913;28;2160;-67
2021/12/27 00:16:52;;;;;;;25.00;15.57;;;;;;;8.49;76.77;98390.88;347658;28;1073;-68
2021/12/27 00:17:04;;;;;;;31.45;17.67;;;;;;;8.49;76.76;98393.47;346834;28;1850;-68
2021/12/27 00:17:16;;;;;;;35.53;18.70;;;;;;;8.47;76.57;98400.44;347596;28;1062;-68
2021/12/27 00:17:28;;;;;;;34.20;17.92;;;;;;;8.46;76.52;98390.16;347641;28;1088;-68
2021/12/27 00:17:45;;;;;;;34.97;17.60;;;;;;;8.46;76.55;98393.56;347580;28;1104;-68
2021/12/27 00:17:57;;;;;;;36.20;18.00;;;;;;;8.47;76.53;98394.41;347555;28;1402;-68
2021/12/27 00:18:09;;;;;;;31.88;17.42;;;;;;;8.48;76.63;98396.09;347158;28;1902;-68
2021/12/27 00:18:21;;;;;;;26.38;16.23;;;;;;;8.48;76.59;98394.34;347360;28;1179;-68
2021/12/27 00:18:33;;;;;;;27.92;16.50;;;;;;;8.48;76.50;98390.94;346675;28;2002;-67
2021/12/27 00:18:45;;;;;;;33.17;17.90;;;;;;;8.49;76.42;98392.59;346386;28;1949;-68
2021/12/27 00:18:58;;;;;;;33.33;17.95;;;;;;;8.47;76.65;98394.41;346106;28;1455;-67
2021/12/27 00:19:10;;;;;;;28.45;16.65;;;;;;;8.49;76.54;98395.19;346269;28;1292;-67
2021/12/27 00:19:22;;;;;;;24.48;15.55;;;;;;;8.51;76.56;98395.97;346435;28;1078;-69
2021/12/27 00:19:34;;;;;;;26.08;15.88;;;;;;;8.50;76.68;98389.94;346081;28;1267;-68
2021/12/27 00:19:49;;;;;;;28.15;16.33;;;;;;;8.49;76.40;98397.78;346112;28;1680;-68
2021/12/27 00:20:02;;;;;;;27.45;16.17;;;;;;;8.50;76.64;98389.09;347253;28;1702;-67
2021/12/27 00:20:16;;;;;;;28.25;16.48;;;;;;;8.52;76.40;98395.06;347195;28;1086;-68
2021/12/27 00:20:28;;;;;;;31.45;16.95;;;;;;;8.50;76.40;98395.13;347567;28;1053;-68
2021/12/27 00:20:40;;;;;;;30.98;16.50;;;;;;;8.51;76.69;98390.78;347552;28;911;-68
2021/12/27 00:20:52;;;;;;;28.95;16.30;;;;;;;8.48;76.63;98391.75;347642;28;1074;-68
2021/12/27 00:21:05;;;;;;;29.85;16.98;;;;;;;8.48;76.34;98393.53;347492;28;1988;-67
2021/12/27 00:21:17;;;;;;;29.27;16.65;;;;;;;8.47;76.20;98397.00;347634;28;1202;-67
2021/12/27 00:21:29;;;;;;;27.38;15.82;;;;;;;8.46;76.50;98387.56;347496;28;1078;-68
2021/12/27 00:21:41;;;;;;;25.45;15.38;;;;;;;8.48;76.58;98396.09;345850;28;2159;-67
2021/12/27 00:21:53;;;;;;;24.40;15.05;;;;;;;8.48;76.64;98398.69;346787;28;2213;-68
2021/12/27 00:22:05;;;;;;;24.95;15.23;;;;;;;8.49;76.49;98393.47;346591;28;2092;-67
2021/12/27 00:22:17;;;;;;;29.13;16.60;;;;;;;8.43;76.59;98392.88;344398;28;3363;-67
2021/12/27 00:22:29;;;;;;;33.28;18.00;;;;;;;8.43;76.61;98387.69;346642;28;6522;-67
2021/12/27 00:22:45;;;;;;;36.75;18.17;;;;;;;8.35;76.73;98394.03;346259;28;2018;-67
2021/12/27 00:22:57;;;;;;;35.78;17.42;;;;;;;8.31;77.02;98395.06;345719;28;2236;-67
2021/12/27 00:23:09;;;;;;;32.25;17.40;;;;;;;8.33;76.98;98401.03;347353;28;1070;-68
2021/12/27 00:23:21;;;;;;;32.00;17.45;;;;;;;8.32;77.09;98391.56;346689;28;2117;-68
2021/12/27 00:23:34;;;;;;;29.98;17.25;;;;;;;8.31;77.58;98396.78;346513;28;1885;-67
2021/12/27 00:23:46;;;;;;;28.90;17.15;;;;;;;8.29;77.63;98396.88;346378;28;2730;-68
2021/12/27 00:23:58;;;;;;;29.00;17.23;;;;;;;8.27;77.80;98398.69;346175;28;1268;-67
2021/12/27 00:24:10;;;;;;;27.83;16.70;;;;;;;8.26;77.62;98391.81;346319;28;4558;-68
2021/12/27 00:24:22;;;;;;;26.50;16.63;;;;;;;8.27;77.95;98388.34;346185;28;1061;-67
2021/12/27 00:24:34;;;;;;;26.02;16.20;;;;;;;8.28;77.97;98394.34;346340;28;1239;-67
2021/12/27 00:24:47;;;;;;;26.35;16.00;;;;;;;8.27;77.93;98392.66;346200;28;1098;-68
2021/12/27 00:24:59;;;;;;;27.15;16.17;;;;;;;8.27;77.98;98393.53;346674;28;1838;-67
2021/12/27 00:25:12;;;;;;;26.45;16.05;;;;;;;8.28;78.01;98397.78;347302;28;1262;-67
2021/12/27 00:25:26;;;;;;;23.20;14.98;;;;;;;8.30;77.56;98393.38;346692;28;2345;-67
2021/12/27 00:25:38;;;;;;;24.10;15.13;;;;;;;8.32;77.74;98386.38;346366;28;1037;-68
2021/12/27 00:25:50;;;;;;;24.38;15.32;;;;;;;8.34;77.76;98397.50;345885;28;2302;-67
2021/12/27 00:26:03;;;;;;;25.60;16.30;;;;;;;8.35;77.41;98391.44;348100;28;2263;-67
2021/12/27 00:26:15;;;;;;;29.50;17.33;;;;;;;8.37;77.49;98388.75;348539;28;1977;-68
2021/12/27 00:26:27;;;;;;;32.95;17.77;;;;;;;8.37;77.49;98389.63;347602;28;1944;-68
2021/12/27 00:26:39;;;;;;;34.30;17.10;;;;;;;8.30;76.95;98398.56;348367;28;1366;-68
2021/12/27 00:26:52;;;;;;;33.83;17.63;;;;;;;8.31;77.18;98392.47;348577;28;1030;-68
2021/12/27 00:27:04;;;;;;;32.85;17.40;;;;;;;8.31;76.94;98389.88;347680;28;1590;-68
2021/12/27 00:27:18;;;;;;;34.47;17.50;;;;;;;8.30;77.27;98398.56;348711;28;1212;-67
2021/12/27 00:27:31;;;;;;;31.90;17.08;;;;;;;8.29;76.95;98386.53;348563;28;1157;-68
2021/12/27 00:27:43;;;;;;;32.58;17.20;;;;;;;8.28;77.56;98389.19;348487;28;1177;-67
2021/12/27 00:27:56;;;;;;;38.40;18.35;;;;;;;8.25;77.62;98384.97;348637;28;1046;-67
2021/12/27 00:28:08;;;;;;;41.47;18.45;;;;;;;8.24;77.27;98383.28;346338;28;1047;-67
2021/12/27 00:28:20;;;;;;;41.17;18.35;;;;;;;8.25;77.44;98384.13;345873;28;5584;-68
2021/12/27 00:28:33;;;;;;;35.25;18.02;;;;;;;8.27;77.08;98382.31;347335;28;2365;-68
2021/12/27 00:28:45;;;;;;;35.15;17.98;;;;;;;8.18;77.30;98389.56;347043;28;2049;-69
2021/12/27 00:28:57;;;;;;;34.75;17.58;;;;;;;8.12;77.86;98389.81;347386;28;1493;-68
2021/12/27 00:29:19;;;;;;;32.97;17.80;;;;;;;8.00;78.21;98390.34;348393;28;2286;-68
2021/12/27 00:29:31;;;;;;;25.92;16.65;;;;;;;8.08;78.24;98392.63;348582;28;1077;-67
2021/12/27 00:29:44;;;;;;;27.58;16.42;;;;;;;8.02;78.93;98388.53;348439;28;1055;-68
2021/12/27 00:29:56;;;;;;;32.22;17.55;;;;;;;7.96;78.96;98394.81;347748;28;2427;-67
2021/12/27 00:30:09;;;;;;;32.72;18.38;;;;;;;8.02;78.68;98392.88;347027;28;2367;-68
2021/12/27 00:30:22;;;;;;;27.63;17.13;;;;;;;8.04;78.99;98396.25;347311;28;1246;-67
2021/12/27 00:30:34;;;;;;;25.35;15.88;;;;;;;8.07;78.67;98393.50;346917;28;1186;-67
2021/12/27 00:30:46;;;;;;;26.17;15.45;;;;;;;8.08;79.06;98392.63;345857;28;2627;-68
2021/12/27 00:30:58;;;;;;;27.48;16.17;;;;;;;8.07;78.82;98396.97;346308;28;1625;-68
2021/12/27 00:31:10;;;;;;;27.35;16.50;;;;;;;8.10;78.65;98391.63;347571;28;1181;-67
2021/12/27 00:31:22;;;;;;;25.63;16.42;;;;;;;8.11;78.02;98395.94;347590;28;1290;-68
2021/12/27 00:31:34;;;;;;;24.90;16.13;;;;;;;8.14;78.25;98392.34;347449;28;1123;-68
2021/12/27 00:31:46;;;;;;;27.30;16.20;;;;;;;8.15;78.27;98384.53;347556;28;1270;-67
2021/12/27 00:31:58;;;;;;;29.40;17.13;;;;;;;8.13;78.12;98385.47;346679;28;2348;-68
2021/12/27 00:32:11;;;;;;;30.42;17.05;;;;;;;8.13;78.10;98380.31;346598;28;2287;-67
2021/12/27 00:32:23;;;;;;;29.92;16.75;;;;;;;8.14;78.21;98392.34;347150;28;1983;-67
2021/12/27 00:32:37;;;;;;;30.58;17.20;;;;;;;8.13;78.21;98388.06;347345;28;1329;-68
2021/12/27 00:32:50;;;;;;;32.47;17.55;;;;;;;8.13;78.20;98390.66;347338;28;1070;-67
2021/12/27 00:33:02;;;;;;;32.40;17.65;;;;;;;8.13;78.38;98388.94;347116;28;1404;-67
2021/12/27 00:33:14;;;;;;;31.90;17.30;;;;;;;8.16;77.96;98390.53;347165;28;1050;-67
2021/12/27 00:33:26;;;;;;;28.00;16.85;;;;;;;8.19;78.39;98386.09;347144;28;1372;-68
2021/12/27 00:33:41;;;;;;;27.90;16.83;;;;;;;8.22;78.29;98387.69;347244;28;1172;-68
2021/12/27 00:33:53;;;;;;;32.70;17.92;;;;;;;8.22;78.24;98385.09;347328;28;1055;-67
2021/12/27 00:34:05;;;;;;;36.90;18.35;;;;;;;8.23;78.21;98385.94;345470;28;2272;-68
2021/12/27 00:34:17;;;;;;;38.47;18.58;;;;;;;8.21;78.02;98388.63;345226;28;2349;-67
2021/12/27 00:34:30;;;;;;;37.28;18.70;;;;;;;8.22;77.69;98384.28;347014;28;1041;-67
2021/12/27 00:34:42;;;;;;;35.63;18.27;;;;;;;8.23;78.17;98386.81;347306;28;1043;-67
2021/12/27 00:34:54;;;;;;;30.27;16.67;;;;;;;8.23;77.82;98386.81;347788;28;1030;-67
2021/12/27 00:35:07;;;;;;;28.23;16.27;;;;;;;8.24;77.76;98385.88;346193;28;2319;-67
2021/12/27 00:35:22;;;;;;;25.17;15.75;;;;;;;8.26;78.07;98383.22;347454;28;1034;-68
2021/12/27 00:35:36;;;;;;;23.50;15.10;;;;;;;8.27;77.83;98383.16;347330;28;954;-69
2021/12/27 00:35:48;;;;;;;24.45;15.45;;;;;;;8.29;78.15;98383.06;347417;28;1196;-68
2021/12/27 00:36:00;;;;;;;23.30;14.85;;;;;;;8.29;78.14;98385.66;346569;28;2190;-69
2021/12/27 00:36:13;;;;;;;22.90;14.20;;;;;;;8.31;78.12;98389.88;347736;28;1104;-68
2021/12/27 00:36:25;;;;;;;22.98;14.63;;;;;;;8.33;77.92;98382.91;347534;28;1208;-68
2021/12/27 00:36:37;;;;;;;22.27;14.68;;;;;;;8.33;77.95;98372.53;347541;28;1399;-68
2021/12/27 00:36:49;;;;;;;24.85;15.52;;;;;;;8.35;78.04;98386.25;347541;28;1294;-68
2021/12/27 00:37:01;;;;;;;26.60;16.38;;;;;;;8.36;78.18;98382.75;346393;28;2013;-68
2021/12/27 00:37:13;;;;;;;23.80;15.77;;;;;;;8.37;78.14;98389.63;346922;28;2069;-68
2021/12/27 00:37:25;;;;;;;22.77;15.32;;;;;;;8.39;77.68;98385.22;345792;28;1997;-68
2021/12/27 00:37:37;;;;;;;25.95;15.98;;;;;;;8.38;77.75;98386.09;347030;28;1197;-68
2021/12/27 00:37:49;;;;;;;30.45;17.10;;;;;;;8.39;77.72;98386.94;346215;28;1265;-68
2021/12/27 00:38:01;;;;;;;31.50;17.17;;;;;;;8.38;77.66;98386.09;345820;28;1782;-68
2021/12/27 00:38:13;;;;;;;27.90;15.98;;;;;;;8.39;77.67;98387.81;347709;28;1995;-68
2021/12/27 00:38:25;;;;;;;27.05;15.85;;;;;;;8.39;77.43;98387.81;347372;28;927;-67
2021/12/27 00:38:37;;;;;;;24.33;15.23;;;;;;;8.39;77.83;98382.63;347507;28;1077;-68
2021/12/27 00:38:49;;;;;;;24.52;15.23;;;;;;;8.43;77.34;98382.50;347483;28;1161;-68
2021/12/27 00:39:03;;;;;;;23.75;14.57;;;;;;;8.44;77.74;98387.63;346724;28;1331;-68
2021/12/27 00:39:15;;;;;;;24.65;14.70;;;;;;;8.45;77.37;98385.88;346062;28;2051;-68
2021/12/27 00:39:27;;;;;;;24.25;14.70;;;;;;;8.46;77.54;98385.81;346342;28;2015;-68
2021/12/27 00:39:39;;;;;;;24.98;15.02;;;;;;;8.49;77.25;98390.00;346067;28;2262;-68
2021/12/27 00:39:51;;;;;;;26.50;15.15;;;;;;;8.50;77.59;98383.94;347371;28;1917;-68
2021/12/27 00:40:04;;;;;;;32.88;16.77;;;;;;;8.47;76.89;98384.91;346132;28;2485;-68
2021/12/27 00:40:17;;;;;;;32.33;16.70;;;;;;;8.46;77.04;98385.81;346183;28;1161;-68
2021/12/27 00:40:29;;;;;;;30.80;16.65;;;;;;;8.45;77.11;98391.06;346488;28;4484;-68
2021/12/27 00:40:41;;;;;;;30.77;17.00;;;;;;;8.46;76.88;98382.38;347282;28;1097;-68
2021/12/27 00:40:53;;;;;;;34.88;17.50;;;;;;;8.46;76.88;98383.22;347139;28;1282;-68
2021/12/27 00:41:05;;;;;;;31.08;16.27;;;;;;;8.45;76.82;98381.56;347131;28;1901;-68
2021/12/27 00:41:17;;;;;;;28.67;16.05;;;;;;;8.46;76.76;98385.81;346666;28;2303;-68
2021/12/27 00:41:29;;;;;;;34.03;17.25;;;;;;;8.47;76.95;98384.06;345781;28;2251;-68
2021/12/27 00:41:41;;;;;;;34.88;17.30;;;;;;;8.47;76.79;98384.06;345975;28;1332;-68
2021/12/27 00:41:53;;;;;;;34.70;18.08;;;;;;;8.48;76.64;98380.56;345873;28;1087;-69
2021/12/27 00:42:06;;;;;;;36.97;18.92;;;;;;;8.47;76.69;98378.88;347153;28;1868;-68
2021/12/27 00:42:18;;;;;;;39.25;19.42;;;;;;;8.44;76.69;98379.03;346362;28;1821;-69
2021/12/27 00:42:30;;;;;;;39.40;19.20;;;;;;;8.40;76.83;98379.13;347123;28;1242;-68
2021/12/27 00:42:42;;;;;;;41.92;20.02;;;;;;;8.40;76.66;98383.47;347719;28;1038;-68
2021/12/27 00:42:54;;;;;;;46.60;21.27;;;;;;;8.42;77.00;98380.84;347602;28;1101;-68
2021/12/27 00:43:06;;;;;;;38.55;19.98;;;;;;;8.42;76.86;98386.03;347594;28;1290;-68
2021/12/27 00:43:19;;;;;;;30.75;17.58;;;;;;;8.42;77.03;98378.25;346462;28;1985;-67
2021/12/27 00:43:31;;;;;;;28.35;17.48;;;;;;;8.42;76.98;98380.84;347652;28;1316;-68
2021/12/27 00:43:43;;;;;;;29.15;18.45;;;;;;;8.42;77.29;98383.44;347531;28;1105;-69
2021/12/27 00:43:55;;;;;;;28.50;18.25;;;;;;;8.40;77.67;98378.28;347493;28;1084;-68
2021/12/27 00:44:07;;;;;;;28.67;17.70;;;;;;;8.39;77.57;98374.84;347565;28;1245;-68
2021/12/27 00:44:19;;;;;;;27.55;17.08;;;;;;;8.38;77.58;98378.34;346730;28;1609;-69
2021/12/27 00:44:32;;;;;;;27.13;17.48;;;;;;;8.38;77.69;98374.91;346059;28;1045;-69
2021/12/27 00:44:44;;;;;;;28.25;18.27;;;;;;;8.38;77.76;98380.09;346208;28;1065;-68
2021/12/27 00:44:56;;;;;;;30.25;18.60;;;;;;;8.35;77.76;98381.09;345772;28;2337;-68
2021/12/27 00:45:09;;;;;;;30.73;18.52;;;;;;;8.33;77.59;98382.91;347301;28;1054;-68
2021/12/27 00:45:21;;;;;;;30.58;17.65;;;;;;;8.20;78.20;98381.75;347600;28;1069;-67
2021/12/27 00:45:33;;;;;;;30.15;17.23;;;;;;;8.16;78.00;98382.78;347257;28;1061;-68
2021/12/27 00:45:46;;;;;;;29.05;16.70;;;;;;;8.12;78.15;98387.25;347468;28;1239;-68
2021/12/27 00:45:58;;;;;;;31.20;17.52;;;;;;;8.13;78.17;98386.34;345989;28;1642;-68
2021/12/27 00:46:10;;;;;;;32.42;17.58;;;;;;;8.09;78.69;98386.53;345776;28;1905;-68
2021/12/27 00:46:22;;;;;;;32.15;17.80;;;;;;;8.03;78.72;98379.88;345936;28;1226;-69
2021/12/27 00:46:34;;;;;;;35.53;19.02;;;;;;;7.91;78.84;98386.41;345850;28;1998;-68
2021/12/27 00:46:46;;;;;;;36.00;18.65;;;;;;;7.87;79.46;98384.88;345731;28;1216;-69
2021/12/27 00:46:59;;;;;;;33.83;17.52;;;;;;;7.79;79.13;98379.19;345718;28;2323;-69
2021/12/27 00:47:11;;;;;;;32.30;16.65;;;;;;;7.77;79.88;98380.97;347498;28;1058;-68
2021/12/27 00:47:23;;;;;;;33.40;17.15;;;;;;;7.77;79.76;98383.56;347285;28;1319;-68
2021/12/27 00:47:35;;;;;;;32.90;17.02;;;;;;;7.77;79.51;98379.22;347328;28;1035;-69
2021/12/27 00:47:49;;;;;;;34.75;17.88;;;;;;;7.76;79.92;98382.72;347552;28;1097;-68
2021/12/27 00:48:01;;;;;;;33.83;17.33;;;;;;;7.76;79.71;98379.28;346046;28;2602;-68
2021/12/27 00:48:15;;;;;;;32.50;16.88;;;;;;;7.80;79.82;98388.59;346199;28;1030;-69
2021/12/27 00:48:27;;;;;;;37.53;17.73;;;;;;;7.85;79.71;98380.63;345928;28;1082;-68
2021/12/27 00:48:39;;;;;;;44.53;18.77;;;;;;;7.84;79.55;98382.41;345967;28;1309;-68
2021/12/27 00:48:51;;;;;;;49.25;19.95;;;;;;;7.87;79.17;98374.53;345545;28;1021;-68
2021/12/27 00:49:03;;;;;;;43.13;18.92;;;;;;;7.89;79.67;98377.88;346789;28;1294;-68
2021/12/27 00:49:15;;;;;;;34.90;17.58;;;;;;;7.91;79.28;98381.25;347289;28;1139;-68
2021/12/27 00:49:27;;;;;;;35.38;17.50;;;;;;;7.91;79.28;98377.81;347548;28;1206;-68
2021/12/27 00:49:39;;;;;;;35.08;17.73;;;;;;;7.94;78.92;98380.25;346547;28;2010;-68
2021/12/27 00:49:51;;;;;;;41.17;19.15;;;;;;;7.95;78.98;98376.78;346087;28;1337;-69
2021/12/27 00:50:05;;;;;;;37.90;18.58;;;;;;;7.97;78.59;98377.56;344762;28;1827;-68
2021/12/27 00:50:17;;;;;;;33.30;17.30;;;;;;;7.97;79.05;98378.41;345582;28;2936;-68
2021/12/27 00:50:30;;;;;;;28.88;16.52;;;;;;;7.95;79.05;98372.44;347052;28;1050;-68
2021/12/27 00:50:43;;;;;;;27.67;16.02;;;;;;;7.92;78.94;98375.16;347263;28;1109;-68
2021/12/27 00:50:56;;;;;;;29.60;16.35;;;;;;;7.93;79.47;98378.59;345013;28;1989;-68
2021/12/27 00:51:09;;;;;;;30.20;16.38;;;;;;;7.95;78.93;98371.63;344535;28;1324;-68
2021/12/27 00:51:21;;;;;;;28.60;15.73;;;;;;;7.97;78.81;98380.16;344382;28;1290;-69
2021/12/27 00:51:34;;;;;;;34.83;16.92;;;;;;;7.93;79.06;98368.25;344784;28;2263;-68
2021/12/27 00:51:46;;;;;;;36.08;17.73;;;;;;;7.90;79.23;98376.97;346008;28;1055;-68
2021/12/27 00:51:58;;;;;;;32.03;17.08;;;;;;;7.92;78.99;98382.06;345669;28;1496;-66
2021/12/27 00:52:10;;;;;;;29.17;16.58;;;;;;;7.93;79.18;98379.44;345954;28;2710;-66
2021/12/27 00:52:22;;;;;;;32.10;17.08;;;;;;;7.92;78.75;98375.16;346276;28;1947;-66
2021/12/27 00:52:35;;;;;;;32.47;16.95;;;;;;;7.95;78.82;98371.63;345676;28;1171;-66
2021/12/27 00:52:49;;;;;;;32.05;16.65;;;;;;;7.95;79.03;98377.63;345803;28;2165;-66
2021/12/27 00:53:02;;;;;;;40.47;18.63;;;;;;;7.95;78.42;98377.63;346107;28;5462;-66
2021/12/27 00:53:14;;;;;;;47.00;19.40;;;;;;;7.95;78.87;98375.03;346243;28;1097;-66
2021/12/27 00:53:26;;;;;;;39.80;17.80;;;;;;;7.97;78.96;98380.16;346016;28;1069;-67
2021/12/27 00:53:38;;;;;;;39.53;18.35;;;;;;;7.93;78.69;98379.44;345883;28;1054;-66
2021/12/27 00:53:50;;;;;;;37.97;18.95;;;;;;;7.91;79.07;98381.25;346096;28;1995;-66
2021/12/27 00:54:03;;;;;;;33.58;18.13;;;;;;;7.94;78.73;98375.09;346737;28;1496;-66
2021/12/27 00:54:15;;;;;;;27.67;16.27;;;;;;;7.96;78.50;98378.44;346107;28;1654;-66
2021/12/27 00:54:28;;;;;;;22.75;14.55;;;;;;;7.99;79.14;98378.34;346139;28;1109;-66
2021/12/27 00:54:40;;;;;;;24.58;14.77;;;;;;;8.00;78.96;98380.84;346276;28;4771;-67
2021/12/27 00:54:52;;;;;;;33.53;16.88;;;;;;;8.02;78.80;98377.34;347434;28;1098;-66
2021/12/27 00:55:07;;;;;;;37.38;18.02;;;;;;;8.04;78.83;98381.56;347074;28;1691;-69
2021/12/27 00:55:20;;;;;;;26.17;14.90;;;;;;;8.07;78.78;98378.00;347366;28;1085;-67
2021/12/27 00:55:32;;;;;;;22.90;14.23;;;;;;;8.09;78.94;98383.94;347528;28;1211;-68
2021/12/27 00:55:44;;;;;;;22.50;13.98;;;;;;;8.11;78.65;98376.94;347520;28;1054;-68
2021/12/27 00:55:56;;;;;;;22.65;13.93;;;;;;;8.08;79.07;98372.75;346527;28;2138;-68
2021/12/27 00:56:08;;;;;;;27.55;14.85;;;;;;;8.11;78.89;98371.78;347512;28;1049;-68
2021/12/27 00:56:20;;;;;;;31.42;16.58;;;;;;;8.04;79.05;98378.13;347488;28;1327;-68
2021/12/27 00:56:32;;;;;;;34.65;17.52;;;;;;;7.96;79.28;98379.28;347027;28;2014;-67
2021/12/27 00:56:45;;;;;;;34.08;17.90;;;;;;;7.98;79.14;98377.47;346448;28;1460;-67
2021/12/27 00:56:57;;;;;;;30.17;16.98;;;;;;;7.98;79.41;98374.88;347402;28;1594;-68
2021/12/27 00:57:09;;;;;;;26.20;15.65;;;;;;;8.02;78.72;98377.34;346520;28;1805;-68
2021/12/27 00:57:21;;;;;;;26.25;15.25;;;;;;;8.01;78.64;98371.34;346999;28;2053;-68
2021/12/27 00:57:34;;;;;;;26.98;15.30;;;;;;;8.02;78.77;98380.78;347524;28;1085;-68
2021/12/27 00:57:46;;;;;;;27.05;15.70;;;;;;;8.03;78.76;98379.03;347366;28;1208;-68
2021/12/27 00:57:58;;;;;;;24.45;15.77;;;;;;;8.03;77.90;98373.84;347040;28;1418;-67
2021/12/27 00:58:11;;;;;;;26.52;15.55;;;;;;;8.01;77.97;98381.69;346160;28;1098;-68
2021/12/27 00:58:23;;;;;;;31.40;16.45;;;;;;;7.98;77.85;98381.81;346168;28;1110;-67
2021/12/27 00:58:35;;;;;;;32.53;17.08;;;;;;;7.96;77.58;98376.69;346129;28;1113;-68
2021/12/27 00:58:47;;;;;;;34.15;17.75;;;;;;;7.96;77.32;98383.63;346096;28;1054;-67
2021/12/27 00:58:59;;;;;;;32.08;16.75;;;;;;;7.94;77.51;98373.34;346357;28;1561;-67
2021/12/27 00:59:11;;;;;;;29.77;16.13;;;;;;;7.93;77.76;98384.59;345927;28;2291;-68
2021/12/27 00:59:23;;;;;;;29.20;16.10;;;;;;;7.87;77.76;98384.88;347002;28;1788;-67
2021/12/27 00:59:35;;;;;;;33.08;17.23;;;;;;;7.82;77.41;98375.59;346308;28;1767;-68
2021/12/27 00:59:47;;;;;;;34.50;17.63;;;;;;;7.79;77.75;98376.59;346791;28;1872;-68